createdAt,value
2022-12-27T00:00:39.958Z,11.85
2022-12-27T00:01:40.899Z,12.25
2022-12-27T00:02:42.248Z,13.25
2022-12-27T00:03:43.571Z,12.35
2022-12-27T00:04:44.739Z,12.27
2022-12-27T00:05:47.102Z,13.10
2022-12-27T00:06:48.268Z,13.25
2022-12-27T00:07:49.159Z,13.48
2022-12-27T00:08:50.500Z,13.40
2022-12-27T00:09:52.916Z,10.98
2022-12-27T00:10:54.045Z,12.50
2022-12-27T00:11:59.788Z,12.35
2022-12-27T00:13:01.383Z,11.10
2022-12-27T00:14:03.186Z,12.73
2022-12-27T00:15:04.895Z,11.60
2022-12-27T00:16:07.002Z,12.38
2022-12-27T00:17:08.169Z,12.23
2022-12-27T00:18:09.036Z,9.23
2022-12-27T00:19:10.189Z,12.02
2022-12-27T00:20:11.850Z,12.32
2022-12-27T00:21:13.895Z,11.15
2022-12-27T00:22:14.736Z,11.40
2022-12-27T00:23:15.923Z,12.25
2022-12-27T00:24:16.789Z,11.73
2022-12-27T00:25:17.966Z,12.15
2022-12-27T00:26:19.607Z,10.70
2022-12-27T00:27:20.747Z,12.95
2022-12-27T00:28:21.675Z,12.02
2022-12-27T00:29:22.806Z,11.73
2022-12-27T00:30:23.651Z,12.00
2022-12-27T00:31:25.741Z,10.70
2022-12-27T00:32:26.624Z,11.93
2022-12-27T00:33:28.558Z,12.67
2022-12-27T00:34:29.420Z,12.52
2022-12-27T00:35:30.559Z,12.63
2022-12-27T00:36:32.287Z,10.95
2022-12-27T00:37:33.453Z,11.98
2022-12-27T00:38:34.500Z,11.88
2022-12-27T00:39:35.878Z,13.05
2022-12-27T00:40:38.339Z,12.38
2022-12-27T00:41:39.655Z,13.05
2022-12-27T00:42:40.509Z,13.18
2022-12-27T00:43:41.923Z,12.15
2022-12-27T00:44:42.811Z,12.45
2022-12-27T00:45:44.037Z,11.50
2022-12-27T00:46:44.887Z,12.75
2022-12-27T00:47:46.023Z,12.18
2022-12-27T00:48:46.909Z,13.68
2022-12-27T00:49:48.094Z,10.07
2022-12-27T00:50:49.140Z,12.45
2022-12-27T00:51:50.909Z,15.37
2022-12-27T00:52:51.801Z,18.05
2022-12-27T00:53:53.657Z,17.05
2022-12-27T00:54:54.485Z,17.30
2022-12-27T00:55:55.791Z,12.73
2022-12-27T00:56:56.633Z,14.30
2022-12-27T00:57:57.867Z,15.82
2022-12-27T00:59:02.947Z,15.25
2022-12-27T01:00:09.794Z,13.75
2022-12-27T01:01:12.294Z,14.15
2022-12-27T01:03:14.596Z,12.55
2022-12-27T01:04:16.579Z,14.27
2022-12-27T01:05:18.659Z,15.13
2022-12-27T01:06:20.836Z,13.20
2022-12-27T01:07:22.700Z,13.82
2022-12-27T01:08:23.611Z,14.20
2022-12-27T01:09:24.851Z,13.00
2022-12-27T01:10:25.735Z,15.25
2022-12-27T01:11:27.881Z,12.63
2022-12-27T01:12:28.726Z,14.57
2022-12-27T01:13:30.252Z,15.00
2022-12-27T01:14:31.135Z,13.48
2022-12-27T01:15:32.280Z,14.00
2022-12-27T01:16:33.243Z,14.63
2022-12-27T01:17:34.407Z,13.77
2022-12-27T01:18:35.279Z,14.77
2022-12-27T01:19:36.531Z,16.98
2022-12-27T01:20:37.807Z,15.95
2022-12-27T01:21:38.971Z,16.17
2022-12-27T01:22:40.471Z,14.10
2022-12-27T01:23:42.069Z,16.05
2022-12-27T01:24:42.929Z,16.33
2022-12-27T01:25:44.057Z,14.82
2022-12-27T01:26:44.914Z,15.70
2022-12-27T01:27:46.047Z,16.00
2022-12-27T01:28:47.348Z,15.13
2022-12-27T01:29:48.547Z,16.20
2022-12-27T01:30:49.388Z,15.18
2022-12-27T01:31:50.759Z,16.70
2022-12-27T01:32:51.639Z,15.18
2022-12-27T01:33:53.944Z,17.33
2022-12-27T01:34:54.849Z,15.55
2022-12-27T01:35:56.002Z,16.37
2022-12-27T01:36:56.849Z,16.98
2022-12-27T01:37:58.680Z,15.97
2022-12-27T01:39:00.052Z,17.85
2022-12-27T01:40:01.288Z,16.13
2022-12-27T01:41:22.329Z,17.92
2022-12-27T01:42:41.563Z,14.35
2022-12-27T01:43:42.446Z,15.32
2022-12-27T01:44:54.595Z,17.77
2022-12-27T01:45:55.531Z,14.70
2022-12-27T01:46:56.694Z,16.50
2022-12-27T01:48:00.593Z,14.25
2022-12-27T01:49:04.436Z,15.77
2022-12-27T01:50:09.361Z,15.57
2022-12-27T01:51:10.908Z,15.98
2022-12-27T01:52:13.048Z,16.58
2022-12-27T01:53:16.437Z,15.88
2022-12-27T01:54:17.584Z,16.05
2022-12-27T01:55:21.648Z,17.23
2022-12-27T01:56:25.110Z,16.55
2022-12-27T01:57:26.081Z,16.42
2022-12-27T01:58:28.539Z,14.57
2022-12-27T01:59:29.455Z,17.38
2022-12-27T02:00:30.675Z,15.47
2022-12-27T02:01:33.603Z,16.73
2022-12-27T02:02:34.967Z,16.33
2022-12-27T02:03:39.572Z,19.20
2022-12-27T02:04:40.462Z,17.25
2022-12-27T02:05:41.899Z,15.50
2022-12-27T02:06:42.945Z,15.85
2022-12-27T02:07:48.486Z,16.73
2022-12-27T02:08:52.686Z,13.63
2022-12-27T02:09:56.498Z,16.45
2022-12-27T02:10:58.284Z,16.63
2022-12-27T02:12:01.320Z,16.40
2022-12-27T02:13:04.370Z,13.45
2022-12-27T02:14:05.761Z,17.30
2022-12-27T02:15:07.291Z,16.45
2022-12-27T02:16:12.224Z,16.60
2022-12-27T02:17:14.922Z,16.33
2022-12-27T02:18:15.946Z,16.90
2022-12-27T02:19:21.373Z,16.50
2022-12-27T02:20:23.808Z,16.02
2022-12-27T02:21:49.046Z,16.15
2022-12-27T02:23:36.215Z,17.23
2022-12-27T02:25:07.338Z,15.85
2022-12-27T02:26:35.544Z,17.83
2022-12-27T02:27:48.554Z,14.48
2022-12-27T02:28:57.846Z,16.73
2022-12-27T02:30:01.533Z,16.13
2022-12-27T02:31:04.448Z,18.83
2022-12-27T02:32:07.655Z,17.92
2022-12-27T02:33:13.146Z,18.48
2022-12-27T02:34:16.624Z,17.83
2022-12-27T02:35:21.014Z,17.42
2022-12-27T02:36:25.551Z,17.92
2022-12-27T02:37:28.677Z,16.00
2022-12-27T02:38:31.524Z,17.02
2022-12-27T02:39:33.991Z,18.55
2022-12-27T02:40:54.403Z,17.02
2022-12-27T02:42:14.858Z,18.38
2022-12-27T02:43:34.694Z,16.60
2022-12-27T02:45:00.414Z,17.42
2022-12-27T02:46:22.379Z,16.98
2022-12-27T02:47:42.709Z,18.10
2022-12-27T02:49:09.359Z,16.45
2022-12-27T02:50:30.344Z,16.40
2022-12-27T02:51:53.610Z,16.40
2022-12-27T02:53:07.419Z,15.85
2022-12-27T02:54:16.438Z,18.08
2022-12-27T02:55:27.568Z,16.88
2022-12-27T02:56:51.422Z,17.15
2022-12-27T02:57:57.933Z,14.48
2022-12-27T02:59:06.986Z,18.17
2022-12-27T03:00:29.536Z,17.83
2022-12-27T03:01:57.190Z,17.98
2022-12-27T03:03:23.013Z,17.23
2022-12-27T03:04:30.622Z,16.83
2022-12-27T03:05:36.728Z,17.95
2022-12-27T03:06:47.159Z,18.67
2022-12-27T03:07:50.794Z,18.27
2022-12-27T03:08:55.930Z,14.77
2022-12-27T03:10:30.452Z,19.40
2022-12-27T03:11:53.842Z,16.98
2022-12-27T03:13:14.138Z,16.65
2022-12-27T03:14:36.024Z,18.80
2022-12-27T03:15:56.239Z,19.10
2022-12-27T03:17:00.060Z,20.02
2022-12-27T03:18:05.049Z,18.70
2022-12-27T03:19:08.920Z,19.52
2022-12-27T03:20:31.692Z,20.20
2022-12-27T03:21:52.033Z,20.33
2022-12-27T03:23:11.982Z,16.92
2022-12-27T03:24:31.940Z,20.58
2022-12-27T03:25:34.336Z,18.92
2022-12-27T03:26:36.440Z,21.10
2022-12-27T03:27:38.110Z,21.23
2022-12-27T03:28:58.351Z,21.88
2022-12-27T03:30:18.838Z,18.52
2022-12-27T03:31:41.664Z,20.65
2022-12-27T03:33:02.998Z,17.10
2022-12-27T03:34:26.102Z,20.58
2022-12-27T03:35:29.043Z,20.98
2022-12-27T03:36:49.893Z,21.85
2022-12-27T03:38:03.506Z,22.63
2022-12-27T03:39:06.754Z,19.23
2022-12-27T03:40:10.652Z,21.33
2022-12-27T03:41:32.570Z,22.20
2022-12-27T03:42:54.313Z,21.52
2022-12-27T03:43:55.584Z,19.50
2022-12-27T03:44:56.476Z,21.17
2022-12-27T03:46:16.546Z,21.47
2022-12-27T03:47:24.454Z,20.60
2022-12-27T03:48:26.088Z,22.77
2022-12-27T03:49:30.571Z,21.30
2022-12-27T03:50:35.645Z,21.33
2022-12-27T03:51:37.917Z,22.08
2022-12-27T03:52:41.390Z,22.75
2022-12-27T03:53:43.414Z,21.13
2022-12-27T03:55:45.215Z,19.02
2022-12-27T03:56:46.065Z,18.58
2022-12-27T03:57:47.433Z,20.90
2022-12-27T03:58:48.408Z,21.92
2022-12-27T03:59:49.623Z,20.42
2022-12-27T04:00:50.533Z,21.92
2022-12-27T04:01:51.783Z,19.40
2022-12-27T04:02:53.560Z,21.48
2022-12-27T04:03:54.772Z,21.13
2022-12-27T04:04:55.620Z,20.92
2022-12-27T04:05:56.741Z,18.83
2022-12-27T04:06:57.610Z,22.15
2022-12-27T04:08:16.767Z,21.70
2022-12-27T04:09:36.132Z,20.73
2022-12-27T04:10:55.494Z,21.45
2022-12-27T04:12:15.016Z,20.80
2022-12-27T04:13:34.540Z,19.92
2022-12-27T04:14:54.027Z,22.17
2022-12-27T04:16:13.429Z,17.35
2022-12-27T04:17:32.805Z,21.80
2022-12-27T04:18:52.531Z,17.42
2022-12-27T04:20:11.883Z,23.13
2022-12-27T04:21:31.152Z,21.98
2022-12-27T04:22:50.579Z,21.90
2022-12-27T04:24:10.042Z,22.52
2022-12-27T04:25:29.589Z,17.95
2022-12-27T04:26:48.947Z,21.83
2022-12-27T04:28:08.541Z,20.15
2022-12-27T04:29:27.889Z,22.55
2022-12-27T04:30:47.216Z,19.17
2022-12-27T04:32:06.494Z,22.33
2022-12-27T04:33:25.785Z,20.65
2022-12-27T04:34:42.833Z,21.92
2022-12-27T04:35:43.689Z,21.80
2022-12-27T04:36:44.811Z,21.40
2022-12-27T04:37:45.668Z,22.08
2022-12-27T04:38:46.799Z,21.75
2022-12-27T04:40:09.424Z,20.83
2022-12-27T04:41:28.500Z,22.67
2022-12-27T04:42:47.865Z,21.75
2022-12-27T04:44:07.156Z,22.27
2022-12-27T04:45:29.257Z,23.70
2022-12-27T04:46:48.546Z,23.52
2022-12-27T04:48:07.827Z,18.67
2022-12-27T04:49:29.222Z,23.85
2022-12-27T04:50:50.472Z,19.65
2022-12-27T04:52:09.732Z,24.77
2022-12-27T04:53:29.611Z,24.63
2022-12-27T04:55:00.564Z,24.77
2022-12-27T04:56:02.188Z,24.92
2022-12-27T04:57:03.357Z,24.92
2022-12-27T04:58:04.497Z,24.95
2022-12-27T04:59:32.219Z,26.40
2022-12-27T05:00:51.712Z,24.38
2022-12-27T05:02:05.101Z,24.92
2022-12-27T05:03:08.797Z,26.63
2022-12-27T05:04:09.709Z,26.45
2022-12-27T05:05:11.429Z,26.93
2022-12-27T05:06:12.973Z,26.48
2022-12-27T05:07:32.807Z,27.50
2022-12-27T05:08:52.069Z,26.73
2022-12-27T05:10:11.404Z,28.55
2022-12-27T05:11:30.801Z,28.25
2022-12-27T05:12:50.258Z,28.75
2022-12-27T05:14:00.404Z,28.20
2022-12-27T05:15:01.234Z,28.25
2022-12-27T05:16:02.446Z,29.07
2022-12-27T05:17:03.370Z,29.80
2022-12-27T05:18:04.331Z,30.67
2022-12-27T05:19:06.234Z,30.03
2022-12-27T05:20:07.808Z,30.90
2022-12-27T05:21:08.948Z,33.80
2022-12-27T05:22:29.277Z,33.22
2022-12-27T05:23:48.764Z,32.55
2022-12-27T05:25:08.285Z,32.08
2022-12-27T05:26:09.435Z,33.25
2022-12-27T05:27:10.299Z,36.78
2022-12-27T05:28:11.894Z,34.55
2022-12-27T05:29:12.790Z,34.15
2022-12-27T05:30:13.923Z,33.97
2022-12-27T05:31:14.829Z,36.72
2022-12-27T05:32:15.988Z,36.88
2022-12-27T05:33:16.859Z,36.13
2022-12-27T05:34:18.020Z,34.58
2022-12-27T05:35:18.863Z,35.00
2022-12-27T05:36:20.408Z,38.33
2022-12-27T05:37:21.963Z,37.75
2022-12-27T05:38:23.113Z,37.75
2022-12-27T05:39:24.311Z,39.17
2022-12-27T05:40:25.484Z,37.17
2022-12-27T05:41:26.635Z,38.65
2022-12-27T05:42:27.468Z,36.47
2022-12-27T05:43:28.917Z,35.30
2022-12-27T05:44:29.825Z,39.72
2022-12-27T05:45:32.321Z,41.75
2022-12-27T05:46:33.221Z,38.53
2022-12-27T05:47:34.404Z,37.37
2022-12-27T05:48:35.567Z,35.95
2022-12-27T05:49:36.781Z,36.35
2022-12-27T05:50:37.653Z,42.65
2022-12-27T05:51:38.790Z,41.97
2022-12-27T05:52:41.282Z,42.38
2022-12-27T05:53:43.056Z,41.50
2022-12-27T05:54:43.967Z,36.85
2022-12-27T05:55:45.132Z,37.88
2022-12-27T05:56:45.988Z,41.40
2022-12-27T05:57:47.136Z,38.47
2022-12-27T05:58:48.017Z,38.63
2022-12-27T05:59:49.239Z,38.60
2022-12-27T06:00:50.365Z,40.03
2022-12-27T06:01:51.615Z,38.72
2022-12-27T06:02:52.801Z,38.15
2022-12-27T06:03:53.989Z,39.43
2022-12-27T06:04:54.868Z,38.22
2022-12-27T06:05:59.479Z,39.73
2022-12-27T06:07:00.471Z,40.58
2022-12-27T06:08:02.305Z,39.07
2022-12-27T06:09:03.251Z,41.97
2022-12-27T06:10:04.980Z,29.67
2022-12-27T06:11:06.998Z,38.70
2022-12-27T06:13:08.795Z,36.63
2022-12-27T06:14:11.027Z,40.22
2022-12-27T06:15:11.928Z,41.35
2022-12-27T06:16:13.231Z,40.07
2022-12-27T06:17:14.175Z,42.30
2022-12-27T06:18:15.293Z,41.47
2022-12-27T06:19:16.252Z,42.38
2022-12-27T06:20:17.726Z,40.40
2022-12-27T06:21:19.648Z,42.22
2022-12-27T06:22:20.812Z,42.63
2022-12-27T06:23:22.320Z,43.55
2022-12-27T06:24:23.516Z,42.28
2022-12-27T06:25:24.411Z,41.03
2022-12-27T06:26:26.872Z,43.20
2022-12-27T06:27:27.786Z,43.30
2022-12-27T06:28:28.924Z,41.80
2022-12-27T06:29:29.823Z,44.47
2022-12-27T06:30:35.997Z,43.70
2022-12-27T06:31:37.604Z,43.58
2022-12-27T06:32:38.755Z,42.33
2022-12-27T06:33:39.601Z,45.13
2022-12-27T06:34:40.775Z,44.72
2022-12-27T06:35:41.667Z,45.88
2022-12-27T06:36:48.996Z,46.40
2022-12-27T06:37:49.847Z,42.80
2022-12-27T06:38:51.667Z,45.20
2022-12-27T06:39:52.531Z,50.53
2022-12-27T06:40:59.804Z,48.65
2022-12-27T06:42:00.656Z,50.63
2022-12-27T06:43:01.798Z,48.00
2022-12-27T06:44:03.287Z,48.80
2022-12-27T06:45:05.973Z,49.17
2022-12-27T06:46:10.313Z,44.25
2022-12-27T06:47:14.780Z,46.97
2022-12-27T06:48:15.621Z,48.97
2022-12-27T06:49:16.814Z,48.00
2022-12-27T06:50:17.697Z,46.65
2022-12-27T06:51:19.769Z,49.85
2022-12-27T06:52:22.443Z,47.30
2022-12-27T06:53:23.655Z,50.17
2022-12-27T06:54:25.173Z,49.58
2022-12-27T06:55:26.328Z,52.00
2022-12-27T06:56:27.467Z,50.00
2022-12-27T06:57:28.612Z,48.72
2022-12-27T06:58:29.454Z,47.60
2022-12-27T06:59:30.635Z,44.80
2022-12-27T07:00:31.535Z,51.17
2022-12-27T07:01:32.791Z,50.10
2022-12-27T07:02:33.860Z,48.28
2022-12-27T07:03:35.167Z,49.30
2022-12-27T07:04:36.057Z,56.40
2022-12-27T07:05:37.684Z,47.53
2022-12-27T07:06:38.563Z,56.65
2022-12-27T07:07:39.698Z,52.20
2022-12-27T07:08:40.673Z,55.83
2022-12-27T07:09:42.534Z,55.25
2022-12-27T07:10:43.378Z,54.60
2022-12-27T07:11:45.155Z,55.20
2022-12-27T07:12:46.003Z,56.30
2022-12-27T07:13:48.275Z,53.97
2022-12-27T07:14:49.120Z,57.97
2022-12-27T07:15:50.284Z,56.50
2022-12-27T07:16:51.301Z,56.30
2022-12-27T07:17:52.440Z,58.37
2022-12-27T07:18:54.115Z,58.75
2022-12-27T07:19:55.294Z,60.03
2022-12-27T07:20:56.175Z,40.45
2022-12-27T07:21:57.400Z,55.22
2022-12-27T07:22:59.301Z,54.05
2022-12-27T07:25:02.978Z,54.95
2022-12-27T07:26:04.560Z,55.08
2022-12-27T07:27:05.492Z,55.33
2022-12-27T07:28:06.623Z,60.65
2022-12-27T07:29:07.476Z,62.13
2022-12-27T07:30:09.368Z,62.40
2022-12-27T07:31:11.455Z,60.35
2022-12-27T07:32:12.690Z,58.85
2022-12-27T07:33:13.562Z,64.25
2022-12-27T07:34:14.717Z,64.72
2022-12-27T07:35:15.629Z,65.25
2022-12-27T07:36:17.787Z,62.28
2022-12-27T07:37:19.325Z,61.92
2022-12-27T07:38:20.656Z,61.50
2022-12-27T07:39:21.508Z,67.80
2022-12-27T07:40:23.290Z,68.13
2022-12-27T07:41:24.187Z,67.07
2022-12-27T07:42:25.402Z,70.10
2022-12-27T07:43:28.330Z,65.20
2022-12-27T07:44:29.571Z,64.55
2022-12-27T07:45:31.382Z,59.75
2022-12-27T07:46:32.588Z,61.65
2022-12-27T07:47:33.502Z,64.18
2022-12-27T07:48:34.927Z,65.72
2022-12-27T07:49:35.820Z,66.38
2022-12-27T07:50:36.926Z,68.78
2022-12-27T07:51:38.070Z,70.82
2022-12-27T07:52:38.936Z,60.88
2022-12-27T07:53:40.139Z,63.87
2022-12-27T07:54:40.986Z,67.93
2022-12-27T07:55:42.829Z,64.85
2022-12-27T07:56:43.687Z,66.22
2022-12-27T07:57:44.910Z,58.33
2022-12-27T07:58:47.263Z,63.35
2022-12-27T07:59:48.422Z,65.35
2022-12-27T08:00:50.072Z,62.53
2022-12-27T08:02:06.614Z,69.70
2022-12-27T08:03:07.689Z,63.58
2022-12-27T08:04:08.913Z,54.60
2022-12-27T08:05:09.786Z,64.70
2022-12-27T08:06:19.322Z,68.07
2022-12-27T08:07:20.310Z,60.17
2022-12-27T08:08:22.711Z,69.03
2022-12-27T08:09:25.141Z,66.35
2022-12-27T08:10:26.324Z,55.05
2022-12-27T08:11:29.418Z,61.72
2022-12-27T08:12:30.318Z,56.53
2022-12-27T08:13:31.487Z,61.80
2022-12-27T08:14:32.657Z,54.22
2022-12-27T08:15:33.530Z,63.63
2022-12-27T08:16:34.892Z,58.38
2022-12-27T08:17:35.807Z,62.60
2022-12-27T08:18:36.978Z,60.75
2022-12-27T08:19:37.878Z,61.08
2022-12-27T08:20:39.057Z,66.17
2022-12-27T08:21:39.931Z,55.15
2022-12-27T08:22:41.084Z,60.53
2022-12-27T08:23:42.073Z,57.08
2022-12-27T08:24:43.290Z,58.17
2022-12-27T08:25:48.797Z,61.40
2022-12-27T08:26:51.014Z,57.88
2022-12-27T08:27:51.865Z,53.55
2022-12-27T08:28:53.074Z,58.87
2022-12-27T08:29:53.931Z,57.58
2022-12-27T08:30:55.106Z,51.95
2022-12-27T08:31:56.008Z,57.05
2022-12-27T08:32:57.210Z,50.95
2022-12-27T08:33:58.886Z,55.95
2022-12-27T08:35:18.234Z,57.97
2022-12-27T08:37:42.112Z,54.25
2022-12-27T08:38:42.977Z,56.60
2022-12-27T08:39:44.145Z,57.65
2022-12-27T08:40:45.411Z,53.22
2022-12-27T08:41:46.824Z,60.45
2022-12-27T08:42:48.327Z,56.10
2022-12-27T08:43:49.822Z,55.00
2022-12-27T08:44:50.740Z,55.95
2022-12-27T08:45:51.940Z,48.40
2022-12-27T08:46:52.831Z,51.20
2022-12-27T08:47:58.238Z,49.57
2022-12-27T08:48:59.078Z,48.72
2022-12-27T08:50:00.242Z,53.43
2022-12-27T08:51:07.343Z,55.17
2022-12-27T08:52:11.757Z,54.83
2022-12-27T08:53:12.583Z,55.70
2022-12-27T08:54:13.733Z,54.10
2022-12-27T08:55:14.687Z,54.70
2022-12-27T08:56:15.862Z,52.03
2022-12-27T08:57:16.726Z,47.97
2022-12-27T08:58:18.571Z,54.90
2022-12-27T08:59:19.481Z,51.97
2022-12-27T09:00:20.760Z,52.87
2022-12-27T09:01:21.788Z,51.47
2022-12-27T09:02:23.275Z,55.05
2022-12-27T09:03:24.507Z,53.97
2022-12-27T09:04:25.383Z,51.42
2022-12-27T09:05:27.560Z,55.17
2022-12-27T09:06:28.726Z,51.67
2022-12-27T09:07:29.575Z,53.83
2022-12-27T09:08:30.748Z,53.27
2022-12-27T09:09:31.965Z,52.45
2022-12-27T09:10:33.140Z,50.97
2022-12-27T09:11:34.079Z,52.63
2022-12-27T09:12:35.249Z,53.97
2022-12-27T09:13:36.794Z,56.08
2022-12-27T09:14:37.916Z,56.00
2022-12-27T09:15:45.626Z,52.80
2022-12-27T09:16:46.775Z,57.22
2022-12-27T09:17:47.606Z,56.83
2022-12-27T09:18:49.912Z,63.88
2022-12-27T09:19:50.832Z,62.33
2022-12-27T09:20:51.994Z,63.07
2022-12-27T09:21:53.117Z,71.32
2022-12-27T09:22:54.029Z,108.47
2022-12-27T09:23:55.224Z,80.27
2022-12-27T09:24:56.364Z,89.30
2022-12-27T09:25:57.364Z,117.20
2022-12-27T09:26:58.475Z,162.23
2022-12-27T09:27:59.342Z,144.45
2022-12-27T09:29:01.239Z,127.78
2022-12-27T09:30:02.780Z,112.43
2022-12-27T09:31:04.575Z,73.10
2022-12-27T09:32:05.448Z,82.78
2022-12-27T09:33:06.585Z,66.53
2022-12-27T09:34:08.831Z,82.18
2022-12-27T09:35:10.103Z,103.45
2022-12-27T09:36:11.637Z,62.28
2022-12-27T09:37:12.925Z,59.80
2022-12-27T09:38:13.755Z,56.70
2022-12-27T09:39:16.511Z,66.60
2022-12-27T09:40:19.295Z,81.57
2022-12-27T09:41:58.996Z,94.82
2022-12-27T09:42:59.626Z,59.40
2022-12-27T09:44:11.462Z,112.95
2022-12-27T09:45:14.048Z,95.55
2022-12-27T09:46:17.244Z,99.88
2022-12-27T09:47:20.467Z,85.45
2022-12-27T09:48:29.353Z,68.97
2022-12-27T09:49:36.484Z,61.55
2022-12-27T09:50:41.457Z,57.63
2022-12-27T09:51:45.098Z,56.47
2022-12-27T09:52:53.183Z,52.80
2022-12-27T09:53:57.230Z,51.85
2022-12-27T09:55:04.665Z,54.85
2022-12-27T09:56:06.463Z,56.70
2022-12-27T09:57:21.080Z,52.65
2022-12-27T09:58:31.539Z,58.92
2022-12-27T09:59:36.343Z,55.42
2022-12-27T10:00:40.030Z,49.97
2022-12-27T10:01:48.369Z,46.03
2022-12-27T10:02:49.596Z,47.13
2022-12-27T10:03:51.460Z,48.85
2022-12-27T10:05:23.092Z,52.20
2022-12-27T10:06:19.884Z,44.45
2022-12-27T10:07:24.021Z,41.63
2022-12-27T10:08:30.155Z,48.05
2022-12-27T10:09:43.734Z,42.95
2022-12-27T10:10:49.166Z,41.33
2022-12-27T10:11:55.976Z,41.67
2022-12-27T10:13:03.000Z,39.65
2022-12-27T10:14:23.472Z,43.10
2022-12-27T10:15:27.171Z,35.65
2022-12-27T10:16:32.535Z,41.35
2022-12-27T10:17:42.358Z,40.45
2022-12-27T10:18:45.905Z,38.47
2022-12-27T10:19:54.571Z,38.60
2022-12-27T10:20:59.622Z,36.30
2022-12-27T10:22:04.996Z,37.75
2022-12-27T10:23:10.204Z,39.60
2022-12-27T10:24:16.331Z,37.60
2022-12-27T10:25:19.713Z,39.30
2022-12-27T10:26:20.828Z,40.88
2022-12-27T10:27:23.176Z,37.92
2022-12-27T10:28:27.113Z,36.33
2022-12-27T10:29:28.504Z,38.55
2022-12-27T10:30:30.344Z,36.10
2022-12-27T10:31:31.732Z,41.17
2022-12-27T10:32:32.651Z,41.42
2022-12-27T10:33:34.572Z,38.97
2022-12-27T10:35:37.457Z,37.85
2022-12-27T10:36:39.660Z,36.80
2022-12-27T10:37:40.550Z,38.22
2022-12-27T10:38:41.690Z,42.97
2022-12-27T10:39:42.856Z,42.47
2022-12-27T10:40:50.199Z,41.75
2022-12-27T10:41:56.439Z,43.05
2022-12-27T10:43:01.648Z,40.70
2022-12-27T10:44:09.678Z,37.75
2022-12-27T10:45:26.888Z,39.55
2022-12-27T10:46:33.175Z,42.85
2022-12-27T10:47:34.584Z,41.33
2022-12-27T10:49:02.675Z,41.73
2022-12-27T10:50:01.799Z,38.05
2022-12-27T10:51:08.075Z,39.53
2022-12-27T10:52:10.484Z,41.70
2022-12-27T10:53:25.368Z,44.95
2022-12-27T10:54:27.363Z,43.53
2022-12-27T10:56:29.984Z,45.92
2022-12-27T10:57:32.720Z,41.47
2022-12-27T10:58:36.716Z,40.25
2022-12-27T10:59:37.876Z,48.28
2022-12-27T11:00:38.739Z,51.45
2022-12-27T11:01:40.728Z,70.93
2022-12-27T11:03:42.854Z,65.25
2022-12-27T11:04:57.668Z,76.40
2022-12-27T11:05:59.329Z,59.75
2022-12-27T11:07:11.213Z,66.00
2022-12-27T11:08:18.440Z,95.70
2022-12-27T11:09:24.610Z,71.40
2022-12-27T11:10:26.609Z,64.57
2022-12-27T11:12:29.987Z,66.20
2022-12-27T11:13:30.954Z,67.70
2022-12-27T11:14:32.262Z,57.80
2022-12-27T11:15:34.611Z,64.63
2022-12-27T11:16:35.903Z,60.83
2022-12-27T11:17:38.384Z,64.85
2022-12-27T11:18:44.220Z,60.72
2022-12-27T11:19:47.449Z,67.10
2022-12-27T11:20:49.770Z,56.67
2022-12-27T11:21:52.191Z,58.13
2022-12-27T11:22:54.466Z,60.45
2022-12-27T11:23:57.317Z,59.80
2022-12-27T11:24:59.672Z,62.38
2022-12-27T11:26:02.300Z,68.78
2022-12-27T11:27:03.717Z,63.80
2022-12-27T11:28:05.806Z,63.35
2022-12-27T11:30:19.580Z,61.33
2022-12-27T11:31:31.935Z,60.42
2022-12-27T11:32:32.853Z,57.58
2022-12-27T11:33:36.787Z,65.57
2022-12-27T11:34:38.820Z,60.70
2022-12-27T11:36:42.367Z,67.03
2022-12-27T11:37:43.551Z,72.55
2022-12-27T11:38:44.431Z,68.43
2022-12-27T11:39:46.322Z,74.50
2022-12-27T11:40:54.235Z,61.22
2022-12-27T11:41:56.655Z,63.08
2022-12-27T11:43:00.714Z,65.25
2022-12-27T11:44:05.216Z,70.60
2022-12-27T11:45:10.676Z,57.67
2022-12-27T11:46:18.231Z,58.05
2022-12-27T11:47:26.617Z,61.78
2022-12-27T11:48:28.939Z,58.97
2022-12-27T11:49:33.875Z,45.25
2022-12-27T11:50:50.452Z,54.22
2022-12-27T11:52:09.552Z,50.00
2022-12-27T11:53:31.636Z,52.53
2022-12-27T11:54:44.733Z,50.53
2022-12-27T11:56:09.785Z,59.42
2022-12-27T11:57:17.174Z,57.10
2022-12-27T11:58:31.341Z,53.30
2022-12-27T11:59:38.955Z,70.18
2022-12-27T12:00:43.391Z,99.03
2022-12-27T12:02:01.090Z,78.75
2022-12-27T12:03:15.739Z,95.28
2022-12-27T12:04:37.889Z,62.25
2022-12-27T12:05:57.318Z,79.03
2022-12-27T12:07:03.777Z,93.70
2022-12-27T12:08:14.052Z,63.72
2022-12-27T12:09:28.693Z,120.97
2022-12-27T12:10:34.499Z,102.45
2022-12-27T12:11:49.959Z,112.95
2022-12-27T12:13:09.141Z,102.05
2022-12-27T12:14:28.385Z,102.03
2022-12-27T12:15:36.227Z,74.22
2022-12-27T12:16:49.492Z,78.65
2022-12-27T12:17:55.585Z,69.03
2022-12-27T12:19:03.691Z,50.60
2022-12-27T12:20:16.698Z,63.75
2022-12-27T12:21:23.746Z,49.58
2022-12-27T12:22:34.304Z,50.63
2022-12-27T12:23:46.252Z,50.25
2022-12-27T12:24:54.832Z,44.80
2022-12-27T12:26:05.515Z,38.20
2022-12-27T12:27:23.768Z,44.15
2022-12-27T12:28:57.634Z,45.70
2022-12-27T12:30:12.086Z,45.97
2022-12-27T12:31:19.631Z,43.15
2022-12-27T12:32:32.549Z,52.85
2022-12-27T12:33:51.333Z,59.65
2022-12-27T12:35:10.103Z,52.42
2022-12-27T12:36:23.988Z,56.75
2022-12-27T12:37:34.648Z,68.40
2022-12-27T12:38:39.042Z,70.57
2022-12-27T12:39:49.401Z,64.28
2022-12-27T12:41:16.224Z,58.05
2022-12-27T12:42:20.220Z,59.67
2022-12-27T12:43:29.045Z,62.65
2022-12-27T12:44:59.539Z,52.90
2022-12-27T12:46:02.273Z,53.17
2022-12-27T12:47:07.315Z,50.55
2022-12-27T12:48:25.269Z,53.75
2022-12-27T12:49:35.042Z,52.53
2022-12-27T12:50:45.945Z,55.17
2022-12-27T12:51:57.265Z,54.38
2022-12-27T12:53:09.874Z,54.78
2022-12-27T12:54:27.472Z,50.95
2022-12-27T12:55:46.523Z,51.30
2022-12-27T12:56:52.765Z,51.42
2022-12-27T12:57:59.001Z,57.65
2022-12-27T12:59:05.387Z,55.45
2022-12-27T13:00:14.557Z,50.95
2022-12-27T13:01:23.550Z,42.50
2022-12-27T13:02:40.934Z,57.05
2022-12-27T13:03:52.887Z,52.08
2022-12-27T13:05:04.194Z,54.30
2022-12-27T13:06:11.658Z,54.60
2022-12-27T13:07:26.324Z,57.03
2022-12-27T13:08:30.058Z,66.88
2022-12-27T13:09:37.617Z,57.50
2022-12-27T13:10:57.092Z,63.40
2022-12-27T13:12:01.804Z,60.20
2022-12-27T13:13:04.595Z,48.97
2022-12-27T13:14:20.574Z,52.85
2022-12-27T13:15:28.359Z,51.45
2022-12-27T13:16:37.643Z,52.22
2022-12-27T13:17:41.020Z,54.08
2022-12-27T13:18:48.475Z,51.03
2022-12-27T13:19:59.873Z,46.17
2022-12-27T13:21:07.371Z,49.55
2022-12-27T13:22:12.819Z,44.33
2022-12-27T13:23:19.716Z,42.33
2022-12-27T13:24:27.869Z,42.38
2022-12-27T13:25:37.055Z,44.42
2022-12-27T13:26:42.230Z,37.92
2022-12-27T13:27:49.381Z,40.03
2022-12-27T13:28:58.433Z,43.47
2022-12-27T13:30:06.850Z,38.83
2022-12-27T13:31:12.823Z,39.33
2022-12-27T13:32:19.302Z,41.67
2022-12-27T13:33:25.167Z,41.38
2022-12-27T13:34:33.638Z,38.47
2022-12-27T13:35:39.342Z,40.13
2022-12-27T13:36:45.164Z,36.78
2022-12-27T13:37:51.971Z,36.30
2022-12-27T13:39:01.694Z,35.65
2022-12-27T13:40:12.887Z,38.33
2022-12-27T13:41:23.656Z,39.30
2022-12-27T13:42:47.380Z,36.58
2022-12-27T13:43:52.634Z,32.17
2022-12-27T13:45:00.172Z,36.95
2022-12-27T13:46:08.901Z,35.80
2022-12-27T13:47:31.858Z,35.08
2022-12-27T13:48:55.940Z,32.28
2022-12-27T13:50:10.908Z,31.38
2022-12-27T13:51:18.956Z,35.63
2022-12-27T13:52:27.855Z,37.33
2022-12-27T13:53:43.542Z,36.63
2022-12-27T13:54:57.755Z,32.42
2022-12-27T13:56:14.645Z,33.42
2022-12-27T13:57:30.604Z,34.70
2022-12-27T13:58:42.276Z,33.72
2022-12-27T13:59:52.278Z,34.80
2022-12-27T14:00:58.071Z,32.05
2022-12-27T14:02:17.371Z,32.95
2022-12-27T14:03:37.258Z,32.92
2022-12-27T14:04:45.931Z,33.47
2022-12-27T14:06:04.676Z,31.40
2022-12-27T14:07:16.782Z,32.28
2022-12-27T14:08:22.858Z,30.67
2022-12-27T14:09:52.481Z,31.73
2022-12-27T14:11:00.714Z,34.70
2022-12-27T14:12:14.304Z,30.15
2022-12-27T14:13:17.949Z,29.55
2022-12-27T14:14:19.772Z,30.02
2022-12-27T14:15:21.940Z,29.70
2022-12-27T14:16:28.823Z,28.73
2022-12-27T14:17:32.789Z,30.55
2022-12-27T14:18:41.752Z,28.60
2022-12-27T14:19:59.752Z,28.27
2022-12-27T14:21:07.227Z,28.40
2022-12-27T14:22:24.255Z,31.05
2022-12-27T14:23:30.337Z,29.30